Coarsegold, California
Current Conditions -  °F | °C
As of 2:53 PM on Thursday 27 Nov 2014 (Local Time) from KMAE Reporting Station
Clear Clear  
Wind Chill: 71°   Ceiling: Unl
Heat Index: 71°   Visibility: 7mi
Dew Point: 42°   Wind: 0mph
Humidity: 35%   Direction: NA
Pressure: 30.08"   Gusts: NA
Location:  37.26°N, 119.7°W
Report Text: KMAE 272253Z AUTO 00000KT 7SM CLR 22/06 A3008 RMK AO2 SLP185 T02170056
Loading
Personal Weather Stations






























Interactive Weather Map New forecast layout! Learn more

10-Day Weather Forecast

Advertisements
Track Severe Weather on mobile